Weather at Frenaros Helipad

Public forecast

Using degrees Celsius for public forecast. Weather courtesy of forecast.io.

Closest aviation weather report (METAR) to Frenaros Helipad

Closest report is Larnaca International Airport, 17.4 nm (32.2 km) WSW.

2024/06/16 21:30 (retrieved 24 minutes ago)

LCLK 162130Z 22007KT CAVOK 25/23 Q1007 NOSIG

Closest aviation forecast (TAF) to Frenaros Helipad

Closest forecast is Larnaca International Airport, 17.4 nm (32.2 km) WSW.

2024/06/16 18:28 (retrieved 3 hours ago)

TAF LCLK 161730Z 1618/1718 20012KT 9999 FEW020 BECMG 1618/1621 27007KT PROB40 TEMPO 1621/1706 5000 BR BKN007 PROB30 TEMPO 1623/1706 0600 BCFG BKN001 BECMG 1707/1710 21014KT BECMG 1715/1718 27008KT